Time;durP1;ratioP1;P1;durP2;ratioP2;P2;SDS_P1;SDS_P2;PMS_P1;PMS_P2;Temp;Humidity;BMP_temperature;BMP_pressure;BME280_temperature;BME280_humidity;BME280_pressure;Samples;Min_cycle;Max_cycle;Signal;HPM_P1;HPM_P2
2023/07/06 00:19:25;;;;;;;11.83;9.47;;;18.70;99.90;;;;;;6027033;23;20199;-83
2023/07/06 00:49:15;;;;;;;9.40;8.30;;;18.80;99.90;;;;;;5789193;24;20722;-83
2023/07/06 01:04:56;;;;;;;9.20;8.17;;;18.70;99.90;;;;;;5677829;24;20467;-81
2023/07/06 02:10:54;;;;;;;9.57;6.40;;;18.20;99.90;;;;;;5916778;23;21163;-83
2023/07/06 02:41:25;;;;;;;9.20;6.83;;;17.80;99.90;;;;;;5768049;24;20516;-86
2023/07/06 03:11:47;;;;;;;6.70;5.73;;;18.10;99.90;;;;;;5680230;24;20167;-83
2023/07/06 03:42:14;;;;;;;6.87;5.43;;;18.60;99.90;;;;;;5812032;24;20195;-85
2023/07/06 04:12:43;;;;;;;7.33;5.50;;;19.40;99.90;;;;;;5547285;25;20220;-83
2023/07/06 04:17:05;;;;;;;6.07;5.47;;;19.40;99.90;;;;;;5471705;25;20440;-89
2023/07/06 04:37:51;;;;;;;6.97;6.10;;;19.40;99.90;;;;;;5600872;25;20259;-86
2023/07/06 05:33:47;;;;;;;8.47;6.67;;;20.00;99.90;;;;;;5860550;24;20194;-82
2023/07/06 05:54:08;;;;;;;7.68;6.63;;;21.20;99.90;;;;;;5745794;24;20433;-83
2023/07/06 06:34:46;;;;;;;8.77;7.88;;;22.00;99.90;;;;;;5956657;23;20677;-85
2023/07/06 06:59:42;;;;;;;13.75;9.30;;;21.30;99.90;;;;;;5677565;24;20418;-83
2023/07/06 07:20:28;;;;;;;8.93;7.82;;;21.80;98.10;;;;;;5675968;24;20262;-87
2023/07/06 07:24:47;;;;;;;9.27;7.60;;;21.70;98.20;;;;;;5613437;24;20951;-86
2023/07/06 08:00:40;;;;;;;6.03;4.50;;;22.60;85.00;;;;;;5614792;24;20709;-87
2023/07/06 08:31:22;;;;;;;5.80;5.20;;;23.10;83.40;;;;;;5800575;24;20234;-84
2023/07/06 09:01:18;;;;;;;5.70;4.43;;;24.30;70.60;;;;;;5734083;24;20886;-85
2023/07/06 10:18:04;;;;;;;5.60;3.55;;;25.30;55.30;;;;;;5640996;24;20205;-84
2023/07/06 10:22:24;;;;;;;5.18;3.15;;;25.50;54.80;;;;;;5669620;24;20742;-84
2023/07/06 10:48:26;;;;;;;6.50;3.20;;;25.20;52.70;;;;;;5904661;23;21108;-83
2023/07/06 11:13:21;;;;;;;5.80;3.30;;;26.30;48.50;;;;;;5709337;24;20568;-86
2023/07/06 11:38:37;;;;;;;5.07;2.70;;;26.30;46.20;;;;;;5675305;24;20739;-82
2023/07/06 11:59:36;;;;;;;3.47;2.70;;;25.90;47.20;;;;;;5683730;24;20178;-85
2023/07/06 12:03:53;;;;;;;5.38;3.17;;;25.70;48.20;;;;;;5631451;24;20603;-83
2023/07/06 12:19:41;;;;;;;3.33;2.80;;;26.50;47.30;;;;;;5634254;24;20192;-86
2023/07/06 12:44:32;;;;;;;4.90;2.95;;;25.10;47.20;;;;;;5623080;24;20606;-85
2023/07/06 13:00:24;;;;;;;2.95;2.33;;;25.30;45.70;;;;;;5796191;24;20176;-86
2023/07/06 13:10:20;;;;;;;5.32;2.90;;;25.30;47.20;;;;;;6126231;23;20235;-86
2023/07/06 13:40:51;;;;;;;7.45;3.25;;;27.10;44.60;;;;;;5901023;23;20770;-83
2023/07/06 14:01:19;;;;;;;4.30;3.35;;;27.80;45.00;;;;;;5707169;24;20653;-87
2023/07/06 14:05:39;;;;;;;4.40;3.10;;;28.10;44.50;;;;;;5586957;24;20384;-85
2023/07/06 15:17:16;;;;;;;3.25;2.95;;;30.90;42.30;;;;;;5666221;24;20193;-87
2023/07/06 15:52:45;;;;;;;3.60;2.95;;;24.80;41.80;;;;;;5993715;23;20215;-88
2023/07/06 16:28:25;;;;;;;4.78;2.72;;;25.60;41.10;;;;;;5887886;23;20242;-85
2023/07/06 16:32:44;;;;;;;3.80;2.58;;;25.20;41.10;;;;;;5746589;24;20501;-84
2023/07/06 16:53:14;;;;;;;3.72;2.85;;;24.00;41.70;;;;;;5824013;24;20571;-86
2023/07/06 17:13:55;;;;;;;4.63;3.03;;;23.50;43.40;;;;;;5631974;24;20254;-82
2023/07/06 18:19:59;;;;;;;5.20;2.80;;;22.00;43.20;;;;;;5674998;25;20201;-87
2023/07/06 18:55:07;;;;;;;4.73;3.27;;;21.50;44.00;;;;;;5732608;24;20230;-85
2023/07/06 19:15:41;;;;;;;5.50;3.00;;;20.30;49.00;;;;;;5647128;25;20298;-85
2023/07/06 20:26:14;;;;;;;6.57;4.07;;;17.00;88.30;;;;;;5659654;24;20245;-87
2023/07/06 20:51:59;;;;;;;6.97;4.80;;;16.50;93.50;;;;;;5807819;24;20177;-85
2023/07/06 21:27:38;;;;;;;7.70;5.70;;;15.80;98.90;;;;;;6029139;23;20661;-86
2023/07/06 21:57:54;;;;;;;10.27;6.63;;;15.30;99.90;;;;;;5796988;24;20257;-85
2023/07/06 22:27:46;;;;;;;10.90;6.83;;;14.70;99.90;;;;;;5819298;23;20610;-87
